Time;durP1;ratioP1;P1;durP2;ratioP2;P2;SDS_P1;SDS_P2;PMS_P1;PMS_P2;Temp;Humidity;BMP_temperature;BMP_pressure;BME280_temperature;BME280_humidity;BME280_pressure;Samples;Min_cycle;Max_cycle;Signal;HPM_P1;HPM_P2
2021/03/17 00:00:13;;;;;;;1999.90;999.90;;;20.90;69.00;;;;;;5115593;28;20171;-46
2021/03/17 00:02:40;;;;;;;1999.90;999.90;;;20.80;69.30;;;;;;5115430;28;20198;-48
2021/03/17 00:05:07;;;;;;;1999.90;999.90;;;20.80;69.50;;;;;;5115441;28;20163;-48
2021/03/17 00:07:35;;;;;;;1999.90;999.90;;;20.70;69.30;;;;;;5115291;28;20167;-48
2021/03/17 00:21:48;;;;;;;1999.90;999.90;;;20.70;68.60;;;;;;5172723;27;20952;-48
2021/03/17 00:24:15;;;;;;;1999.90;999.90;;;20.70;69.70;;;;;;5172782;27;20192;-48
2021/03/17 00:26:42;;;;;;;1999.90;999.90;;;20.70;69.30;;;;;;5172708;27;20645;-46
2021/03/17 00:29:09;;;;;;;1999.90;999.90;;;20.80;69.50;;;;;;5172589;27;20168;-47
2021/03/17 00:31:35;;;;;;;1999.90;999.90;;;20.80;68.70;;;;;;5172539;27;20177;-48
2021/03/17 00:34:02;;;;;;;1999.90;999.90;;;20.70;70.10;;;;;;5172508;27;20611;-44
2021/03/17 00:36:29;;;;;;;1999.90;999.90;;;20.60;70.90;;;;;;5172617;27;20262;-49
2021/03/17 00:38:56;;;;;;;1999.90;999.90;;;20.50;71.30;;;;;;5172399;27;20187;-46
2021/03/17 00:41:23;;;;;;;1999.90;999.90;;;20.40;72.10;;;;;;5172420;27;20173;-43
2021/03/17 00:43:49;;;;;;;1999.90;999.90;;;20.20;72.60;;;;;;5172295;27;20153;-44
2021/03/17 00:46:16;;;;;;;1999.90;999.90;;;20.20;72.20;;;;;;5172285;27;20161;-43
2021/03/17 00:48:43;;;;;;;1999.90;999.90;;;20.20;72.10;;;;;;5172223;27;20515;-47
2021/03/17 00:51:10;;;;;;;1999.90;999.90;;;20.10;72.60;;;;;;5172209;27;20653;-47
2021/03/17 00:53:36;;;;;;;1999.90;999.90;;;20.10;72.90;;;;;;5172247;27;20209;-49
2021/03/17 00:56:03;;;;;;;1999.90;999.90;;;20.10;73.00;;;;;;5172163;27;20169;-46
2021/03/17 00:58:30;;;;;;;1999.90;999.90;;;20.00;73.40;;;;;;5172113;27;20177;-50
2021/03/17 01:00:57;;;;;;;1999.90;999.90;;;19.90;74.20;;;;;;5172016;27;20173;-42
2021/03/17 01:03:24;;;;;;;1999.90;999.90;;;19.90;75.10;;;;;;5172186;27;20177;-46
2021/03/17 01:05:51;;;;;;;1999.90;999.90;;;19.80;75.40;;;;;;5171869;27;20626;-49
2021/03/17 01:08:17;;;;;;;1999.90;999.90;;;19.80;76.80;;;;;;5171756;27;20529;-46
2021/03/17 01:10:47;;;;;;;1999.90;999.90;;;19.70;77.80;;;;;;5171770;27;20201;-41
2021/03/17 01:13:15;;;;;;;1999.90;999.90;;;19.60;77.40;;;;;;5171564;27;20531;-46
2021/03/17 01:15:45;;;;;;;1999.90;999.90;;;19.40;77.70;;;;;;5171679;27;20170;-49
2021/03/17 01:18:13;;;;;;;1999.90;999.90;;;19.30;78.60;;;;;;5171668;27;20168;-49
2021/03/17 01:20:40;;;;;;;1999.90;999.90;;;19.30;79.30;;;;;;5169324;27;20580;-49
2021/03/17 01:23:07;;;;;;;1999.90;999.90;;;19.20;79.60;;;;;;5157555;27;20158;-52
2021/03/17 01:25:40;;;;;;;1999.90;999.90;;;19.20;80.10;;;;;;5157681;27;20165;-47
2021/03/17 01:28:09;;;;;;;1999.90;999.90;;;19.00;80.70;;;;;;5157600;27;20185;-49
2021/03/17 01:30:40;;;;;;;1999.90;999.90;;;18.90;81.20;;;;;;5157406;27;20374;-54
2021/03/17 01:33:08;;;;;;;1999.90;999.90;;;18.90;82.30;;;;;;5157517;27;20182;-41
2021/03/17 01:35:36;;;;;;;1999.90;999.90;;;18.90;82.10;;;;;;5157665;27;20173;-52
2021/03/17 01:38:03;;;;;;;1999.90;999.90;;;18.90;82.30;;;;;;5157462;27;20649;-42
2021/03/17 01:40:31;;;;;;;1999.90;999.90;;;18.90;82.60;;;;;;5157480;27;20258;-50
2021/03/17 01:42:58;;;;;;;1999.90;999.90;;;18.80;82.60;;;;;;5157225;27;20165;-51
2021/03/17 01:45:25;;;;;;;1999.90;999.90;;;18.80;82.30;;;;;;5157255;27;20635;-46
2021/03/17 01:47:53;;;;;;;1999.90;999.90;;;18.70;82.50;;;;;;5157203;27;20165;-52
2021/03/17 01:50:28;;;;;;;1999.90;999.90;;;18.60;82.60;;;;;;5157056;27;20558;-46
2021/03/17 01:52:55;;;;;;;1999.90;999.90;;;18.60;82.80;;;;;;5157096;27;20165;-48
2021/03/17 01:55:23;;;;;;;1999.90;999.90;;;18.60;82.90;;;;;;5157062;27;20173;-48
2021/03/17 01:57:50;;;;;;;1999.90;999.90;;;18.50;83.20;;;;;;5157020;27;20564;-44
2021/03/17 02:00:20;;;;;;;1999.90;999.90;;;18.50;83.80;;;;;;5156993;27;20165;-42
2021/03/17 02:02:52;;;;;;;1999.90;999.90;;;18.40;84.70;;;;;;5156949;27;20165;-53
2021/03/17 02:05:30;;;;;;;1999.90;999.90;;;18.40;85.40;;;;;;5156810;27;20517;-49
2021/03/17 02:07:59;;;;;;;1999.90;999.90;;;18.40;85.80;;;;;;5156870;27;20168;-49
2021/03/17 02:10:26;;;;;;;1999.90;999.90;;;18.40;86.00;;;;;;5156723;27;20223;-53
2021/03/17 02:13:20;;;;;;;1999.90;999.90;;;18.40;86.30;;;;;;5156718;27;20169;-50
2021/03/17 02:15:52;;;;;;;1999.90;999.90;;;18.30;86.90;;;;;;5156717;27;20508;-53
2021/03/17 02:18:42;;;;;;;1999.90;999.90;;;18.30;86.10;;;;;;5156772;27;20181;-48
2021/03/17 02:21:31;;;;;;;1999.90;999.90;;;18.30;86.70;;;;;;5156553;27;20222;-53
2021/03/17 02:24:17;;;;;;;1999.90;999.90;;;18.30;85.40;;;;;;5156593;27;20595;-53
2021/03/17 02:27:02;;;;;;;1999.90;999.90;;;18.30;86.40;;;;;;5156381;27;20182;-55
2021/03/17 02:29:37;;;;;;;1999.90;999.90;;;18.30;86.90;;;;;;5156159;27;20197;-54
2021/03/17 02:32:49;;;;;;;1999.90;999.90;;;18.20;87.30;;;;;;5156247;27;20168;-47
2021/03/17 02:35:20;;;;;;;1999.90;999.90;;;18.20;87.50;;;;;;5156306;27;20243;-50
2021/03/17 02:37:50;;;;;;;1999.90;999.90;;;18.20;86.90;;;;;;5156304;27;20167;-47
2021/03/17 02:40:24;;;;;;;1999.90;999.90;;;18.20;87.20;;;;;;5156551;27;20518;-41
2021/03/17 02:43:04;;;;;;;1999.90;999.90;;;18.10;87.80;;;;;;5156150;27;20157;-48
2021/03/17 02:45:33;;;;;;;1999.90;999.90;;;18.10;87.90;;;;;;5156115;27;20157;-49
2021/03/17 02:48:11;;;;;;;1999.90;999.90;;;18.10;87.70;;;;;;5155988;27;20703;-49
2021/03/17 02:50:41;;;;;;;1999.90;999.90;;;18.00;87.80;;;;;;5155946;27;20189;-50
2021/03/17 02:53:10;;;;;;;1999.90;999.90;;;17.90;87.90;;;;;;5156158;27;20203;-48
2021/03/17 02:55:48;;;;;;;1999.90;999.90;;;17.90;88.40;;;;;;5155856;27;20245;-47
2021/03/17 02:58:17;;;;;;;1999.90;999.90;;;17.90;89.00;;;;;;5155843;27;20154;-45
2021/03/17 03:00:45;;;;;;;1999.90;999.90;;;17.80;88.90;;;;;;5155900;27;20169;-49
2021/03/17 03:03:13;;;;;;;1999.90;999.90;;;17.80;89.30;;;;;;5155912;27;20214;-49
2021/03/17 03:05:41;;;;;;;1999.90;999.90;;;17.80;89.30;;;;;;5155788;27;20169;-49
2021/03/17 03:08:10;;;;;;;1999.90;999.90;;;17.80;90.00;;;;;;5155569;27;20165;-49
2021/03/17 03:10:39;;;;;;;1999.90;999.90;;;17.70;90.10;;;;;;5155513;27;20276;-45
2021/03/17 03:13:06;;;;;;;1999.90;999.90;;;17.70;90.00;;;;;;5155492;27;20168;-46
2021/03/17 03:15:36;;;;;;;1999.90;999.90;;;17.70;89.60;;;;;;5155349;27;20177;-45
2021/03/17 03:18:05;;;;;;;1999.90;999.90;;;17.70;89.70;;;;;;5155471;27;20631;-49
2021/03/17 03:20:35;;;;;;;1999.90;999.90;;;17.70;90.40;;;;;;5155102;27;20217;-49
2021/03/17 03:23:03;;;;;;;1999.90;999.90;;;17.70;90.10;;;;;;5155597;27;20197;-50
2021/03/17 03:25:30;;;;;;;1999.90;999.90;;;17.70;90.50;;;;;;5155238;27;20574;-50
2021/03/17 03:28:10;;;;;;;1999.90;999.90;;;17.70;90.30;;;;;;5155218;27;20173;-48
2021/03/17 03:30:42;;;;;;;1999.90;999.90;;;17.60;90.40;;;;;;5155035;27;20292;-48
2021/03/17 03:33:09;;;;;;;1999.90;999.90;;;17.60;90.60;;;;;;5155075;27;20624;-46
2021/03/17 03:35:36;;;;;;;1999.90;999.90;;;17.60;90.50;;;;;;5155134;27;20568;-46
2021/03/17 03:38:12;;;;;;;1999.90;999.90;;;17.50;90.90;;;;;;5155144;27;20166;-45
2021/03/17 03:40:41;;;;;;;1999.90;999.90;;;17.50;90.90;;;;;;5155012;27;20659;-44
2021/03/17 03:43:10;;;;;;;1999.90;999.90;;;17.70;90.90;;;;;;5154975;27;20578;-48
2021/03/17 03:45:38;;;;;;;1999.90;999.90;;;17.70;90.60;;;;;;5154789;27;20170;-47
2021/03/17 03:48:06;;;;;;;1999.90;999.90;;;17.70;90.50;;;;;;5154929;27;20169;-47
2021/03/17 03:50:41;;;;;;;1999.90;999.90;;;17.70;90.70;;;;;;5154893;27;20229;-50
2021/03/17 03:53:20;;;;;;;1999.90;999.90;;;17.70;90.60;;;;;;5154877;27;20163;-49
2021/03/17 03:56:02;;;;;;;1999.90;999.90;;;17.60;90.90;;;;;;5154949;27;20161;-50
2021/03/17 03:58:52;;;;;;;1999.90;999.90;;;17.50;90.70;;;;;;5154779;27;20248;-47
2021/03/17 04:01:29;;;;;;;1999.90;999.90;;;17.60;91.00;;;;;;5155024;27;20216;-50
2021/03/17 04:04:04;;;;;;;1999.90;999.90;;;17.50;91.10;;;;;;5154756;27;20557;-48
2021/03/17 04:06:33;;;;;;;1999.90;999.90;;;17.50;91.00;;;;;;5154752;27;20286;-47
2021/03/17 04:09:02;;;;;;;1999.90;999.90;;;17.40;91.20;;;;;;5154635;27;20278;-49
2021/03/17 04:11:29;;;;;;;1999.90;999.90;;;17.40;91.40;;;;;;5154674;27;20166;-48
2021/03/17 04:13:58;;;;;;;1999.90;999.90;;;17.30;91.50;;;;;;5154631;27;20162;-49
2021/03/17 04:16:27;;;;;;;1999.90;999.90;;;17.30;91.80;;;;;;5154541;27;20643;-49
2021/03/17 04:18:56;;;;;;;1999.90;999.90;;;17.30;91.80;;;;;;5154637;27;20276;-46
2021/03/17 04:21:28;;;;;;;1999.90;999.90;;;17.30;91.90;;;;;;5154317;27;20209;-44
2021/03/17 04:23:58;;;;;;;1999.90;999.90;;;17.30;92.10;;;;;;5154559;27;20169;-47
2021/03/17 04:26:26;;;;;;;1999.90;999.90;;;17.30;92.00;;;;;;5154465;27;20576;-44
2021/03/17 04:28:55;;;;;;;1999.90;999.90;;;17.20;92.20;;;;;;5154380;27;20161;-46
2021/03/17 04:31:23;;;;;;;1999.90;999.90;;;17.20;92.40;;;;;;5154262;27;20205;-45
2021/03/17 04:33:50;;;;;;;1999.90;999.90;;;17.30;92.30;;;;;;5154476;27;20601;-44
2021/03/17 04:36:18;;;;;;;1999.90;999.90;;;17.30;92.20;;;;;;5154385;27;20173;-48
2021/03/17 04:38:46;;;;;;;1999.90;999.90;;;17.30;92.30;;;;;;5154369;27;20166;-46
2021/03/17 04:41:14;;;;;;;1999.90;999.90;;;17.30;92.40;;;;;;5154323;27;20635;-47
2021/03/17 04:43:42;;;;;;;1999.90;999.90;;;17.30;92.30;;;;;;5154184;27;20507;-52
2021/03/17 04:46:10;;;;;;;1999.90;999.90;;;17.30;92.50;;;;;;5154238;27;20193;-49
2021/03/17 04:48:43;;;;;;;1999.90;999.90;;;17.30;92.40;;;;;;5154134;27;20169;-55
2021/03/17 04:51:11;;;;;;;1999.90;999.90;;;17.30;92.50;;;;;;5154140;27;20190;-50
2021/03/17 04:53:40;;;;;;;1999.90;999.90;;;17.30;92.40;;;;;;5154088;27;20162;-52
2021/03/17 04:56:08;;;;;;;1999.90;999.90;;;17.20;92.50;;;;;;5154594;27;20620;-48
2021/03/17 04:58:39;;;;;;;1999.90;999.90;;;17.10;92.60;;;;;;5158099;27;20241;-50
2021/03/17 05:01:15;;;;;;;1999.90;999.90;;;17.10;92.70;;;;;;5158029;27;20203;-47
2021/03/17 05:03:42;;;;;;;1999.90;999.90;;;17.10;92.60;;;;;;5157942;27;20639;-49
2021/03/17 05:06:11;;;;;;;1999.90;999.90;;;17.10;93.00;;;;;;5157811;27;20644;-46
2021/03/17 05:08:43;;;;;;;1999.90;999.90;;;17.10;92.90;;;;;;5157896;27;20640;-52
2021/03/17 05:11:11;;;;;;;1999.90;999.90;;;17.00;92.90;;;;;;5157672;27;20189;-51
2021/03/17 05:13:38;;;;;;;1999.90;999.90;;;17.10;93.10;;;;;;5157631;27;20172;-49
2021/03/17 05:16:06;;;;;;;1999.90;999.90;;;17.00;92.90;;;;;;5157814;27;20161;-53
2021/03/17 05:18:34;;;;;;;1999.90;999.90;;;17.10;93.00;;;;;;5157780;27;20165;-51
2021/03/17 05:21:02;;;;;;;1999.90;999.90;;;17.10;93.00;;;;;;5157504;27;20227;-48
2021/03/17 05:23:29;;;;;;;1999.90;999.90;;;17.00;92.80;;;;;;5157477;27;20193;-46
2021/03/17 05:25:58;;;;;;;1999.90;999.90;;;17.00;93.30;;;;;;5157562;27;20521;-48
2021/03/17 05:28:26;;;;;;;1999.90;999.90;;;17.00;93.30;;;;;;5157401;27;20191;-47
2021/03/17 05:30:54;;;;;;;1999.90;999.90;;;16.90;93.30;;;;;;5157342;27;20193;-49
2021/03/17 05:33:27;;;;;;;1999.90;999.90;;;17.00;93.40;;;;;;5157505;27;20177;-52
2021/03/17 05:35:55;;;;;;;1999.90;999.90;;;17.10;93.50;;;;;;5157401;27;20249;-49
2021/03/17 05:38:22;;;;;;;1999.90;999.90;;;17.20;93.30;;;;;;5157426;27;20169;-52
2021/03/17 05:40:49;;;;;;;1999.90;999.90;;;17.30;93.00;;;;;;5157046;27;20170;-50
2021/03/17 05:43:16;;;;;;;1999.90;999.90;;;17.50;92.60;;;;;;5157089;27;20557;-54
2021/03/17 05:45:43;;;;;;;1999.90;999.90;;;17.70;92.10;;;;;;5157112;27;20166;-50
2021/03/17 05:48:10;;;;;;;1999.90;999.90;;;17.90;92.00;;;;;;5156942;27;20154;-45
2021/03/17 05:50:39;;;;;;;1999.90;999.90;;;17.90;91.80;;;;;;5156804;27;20763;-48
2021/03/17 05:53:08;;;;;;;1999.90;999.90;;;18.00;91.60;;;;;;5156359;27;20168;-51
2021/03/17 05:55:38;;;;;;;1999.90;999.90;;;18.20;91.40;;;;;;5155182;27;20173;-54
2021/03/17 05:58:05;;;;;;;1999.90;999.90;;;18.30;91.00;;;;;;5156291;27;20253;-61
2021/03/17 06:00:32;;;;;;;1999.90;999.90;;;18.50;89.30;;;;;;5156666;27;20162;-58
2021/03/17 06:14:28;;;;;;;1999.90;999.90;;;18.90;87.50;;;;;;5088580;27;20557;-51
2021/03/17 06:17:12;;;;;;;1999.90;999.90;;;19.90;84.60;;;;;;5070784;28;20534;-48
2021/03/17 06:19:43;;;;;;;1999.90;999.90;;;20.00;84.80;;;;;;5065154;28;20579;-49
2021/03/17 06:22:11;;;;;;;1999.90;999.90;;;20.20;84.30;;;;;;5068567;28;20686;-55
2021/03/17 06:24:39;;;;;;;1999.90;999.90;;;20.20;82.60;;;;;;5085863;28;20183;-60
2021/03/17 06:27:07;;;;;;;1999.90;999.90;;;20.20;82.50;;;;;;5087718;28;20161;-58
2021/03/17 06:29:34;;;;;;;1999.90;999.90;;;20.40;82.20;;;;;;5083728;28;20593;-61
2021/03/17 06:32:01;;;;;;;1999.90;999.90;;;20.40;82.90;;;;;;5074041;28;20963;-57
2021/03/17 06:34:28;;;;;;;1999.90;999.90;;;20.70;82.10;;;;;;5087327;28;20176;-48
2021/03/17 06:36:55;;;;;;;1999.90;999.90;;;20.70;80.80;;;;;;5088307;28;20164;-53
2021/03/17 06:39:23;;;;;;;1999.90;999.90;;;20.90;80.30;;;;;;5077485;28;20200;-49
2021/03/17 06:41:56;;;;;;;1999.90;999.90;;;21.10;80.10;;;;;;5068755;28;20243;-62
2021/03/17 06:44:28;;;;;;;1999.90;999.90;;;21.30;78.20;;;;;;5080825;28;20180;-55
2021/03/17 06:47:20;;;;;;;1999.90;999.90;;;21.40;77.10;;;;;;5069261;28;20185;-43
2021/03/17 06:49:52;;;;;;;1999.90;999.90;;;21.50;76.30;;;;;;5078619;28;20183;-52
2021/03/17 06:52:29;;;;;;;1999.90;999.90;;;21.50;76.50;;;;;;5069718;28;20200;-57
2021/03/17 06:55:18;;;;;;;1999.90;999.90;;;21.60;76.00;;;;;;5067994;28;20171;-56
2021/03/17 06:57:51;;;;;;;1999.90;999.90;;;21.70;76.30;;;;;;5066706;28;20177;-42
2021/03/17 07:00:30;;;;;;;1999.90;999.90;;;21.80;76.90;;;;;;5068141;28;20189;-57
2021/03/17 07:03:12;;;;;;;1999.90;999.90;;;21.90;75.30;;;;;;5066126;28;20326;-45
2021/03/17 07:05:47;;;;;;;1999.90;999.90;;;22.00;75.00;;;;;;5067975;28;20165;-47
2021/03/17 07:08:29;;;;;;;1999.90;999.90;;;22.20;75.10;;;;;;5057152;28;20227;-55
2021/03/17 07:11:00;;;;;;;1999.90;999.90;;;22.50;73.40;;;;;;5048576;28;20149;-54
2021/03/17 07:13:28;;;;;;;1999.90;999.90;;;22.80;70.60;;;;;;5057943;28;20217;-51
2021/03/17 07:15:57;;;;;;;1999.90;999.90;;;22.90;69.90;;;;;;5055123;28;20184;-57
2021/03/17 07:18:25;;;;;;;1999.90;999.90;;;23.20;68.40;;;;;;5054461;28;20199;-59
2021/03/17 07:21:01;;;;;;;1999.90;999.90;;;23.30;68.40;;;;;;5054639;28;20177;-58
2021/03/17 07:23:47;;;;;;;1999.90;999.90;;;23.50;66.50;;;;;;5054598;28;20203;-51
2021/03/17 07:26:29;;;;;;;1999.90;999.90;;;23.60;63.50;;;;;;5055068;28;20158;-54
2021/03/17 07:29:11;;;;;;;1999.90;999.90;;;23.80;64.10;;;;;;5054471;28;20180;-56
2021/03/17 07:31:48;;;;;;;1999.90;999.90;;;23.90;63.10;;;;;;5054683;28;20173;-50
2021/03/17 07:34:21;;;;;;;1999.90;999.90;;;24.10;64.00;;;;;;5054495;28;20172;-55
2021/03/17 07:37:00;;;;;;;1999.90;999.90;;;24.20;63.80;;;;;;5054618;28;20169;-52
2021/03/17 07:39:41;;;;;;;1999.90;999.90;;;24.30;63.00;;;;;;5051394;28;20170;-52
2021/03/17 07:42:13;;;;;;;1999.90;999.90;;;24.60;61.80;;;;;;5049627;28;20200;-53
2021/03/17 07:44:42;;;;;;;1999.90;999.90;;;24.70;60.70;;;;;;5054464;28;20252;-51
2021/03/17 07:47:11;;;;;;;1999.90;999.90;;;24.80;60.30;;;;;;5053881;28;20230;-53
2021/03/17 07:49:44;;;;;;;1999.90;999.90;;;24.90;58.60;;;;;;5054200;28;20180;-42
2021/03/17 07:52:23;;;;;;;1999.90;999.90;;;25.10;58.70;;;;;;5053345;28;20161;-46
2021/03/17 07:54:52;;;;;;;1999.90;999.90;;;25.40;56.70;;;;;;5054462;28;20153;-49
2021/03/17 07:57:20;;;;;;;1999.90;999.90;;;25.80;57.20;;;;;;5054332;28;20176;-46
2021/03/17 07:59:48;;;;;;;1999.90;999.90;;;26.20;53.40;;;;;;5052716;28;20181;-46
2021/03/17 08:02:17;;;;;;;1999.90;999.90;;;26.60;53.40;;;;;;5053967;28;20204;-50
2021/03/17 08:04:46;;;;;;;1999.90;999.90;;;27.10;52.20;;;;;;5053972;28;20579;-46
2021/03/17 08:07:14;;;;;;;1999.90;999.90;;;27.40;50.60;;;;;;5053202;28;20653;-41
2021/03/17 08:13:05;;;;;;;1999.90;999.90;;;27.90;49.30;;;;;;5089712;27;21063;-45
2021/03/17 08:15:32;;;;;;;1999.90;999.90;;;29.00;46.50;;;;;;5089152;28;20202;-46
2021/03/17 08:17:59;;;;;;;1999.90;999.90;;;29.60;44.90;;;;;;5087149;28;20160;-55
2021/03/17 08:20:28;;;;;;;1999.90;999.90;;;30.30;44.00;;;;;;5089082;28;20165;-48
2021/03/17 08:22:57;;;;;;;1999.90;999.90;;;30.70;41.70;;;;;;5089264;28;20184;-54
2021/03/17 08:25:42;;;;;;;1999.90;999.90;;;31.10;40.60;;;;;;5089583;28;20167;-48
2021/03/17 08:28:29;;;;;;;1999.90;999.90;;;31.40;40.60;;;;;;5088868;28;20218;-46
2021/03/17 08:30:59;;;;;;;1999.90;999.90;;;31.80;40.50;;;;;;5089314;28;20562;-54
2021/03/17 08:33:37;;;;;;;1999.90;999.90;;;32.00;39.90;;;;;;5089468;28;20644;-56
2021/03/17 08:36:16;;;;;;;1999.90;999.90;;;32.10;38.80;;;;;;5089042;28;20167;-59
2021/03/17 08:38:57;;;;;;;1999.90;999.90;;;32.30;37.90;;;;;;5089376;28;20164;-59
2021/03/17 08:41:49;;;;;;;1999.90;999.90;;;32.60;37.10;;;;;;5088989;28;20167;-58
2021/03/17 08:44:21;;;;;;;1999.90;999.90;;;33.10;36.50;;;;;;5088576;28;20192;-59
2021/03/17 08:46:49;;;;;;;1999.90;999.90;;;33.20;36.60;;;;;;5089305;28;20175;-61
2021/03/17 08:49:43;;;;;;;1999.90;999.90;;;33.40;35.50;;;;;;5088907;28;20168;-58
2021/03/17 08:52:20;;;;;;;1999.90;999.90;;;33.50;36.30;;;;;;5067078;28;20212;-58
2021/03/17 08:54:52;;;;;;;1999.90;999.90;;;33.30;35.60;;;;;;5069076;28;20488;-56
2021/03/17 08:57:20;;;;;;;1999.90;999.90;;;33.60;35.00;;;;;;5087819;28;20229;-56
2021/03/17 08:59:48;;;;;;;1999.90;999.90;;;32.30;36.50;;;;;;5091434;28;20171;-61
2021/03/17 09:02:41;;;;;;;1999.90;999.90;;;32.70;36.50;;;;;;5075108;28;20179;-60
2021/03/17 09:05:22;;;;;;;1999.90;999.90;;;33.20;36.90;;;;;;5088471;28;20172;-57
2021/03/17 09:08:07;;;;;;;1999.90;999.90;;;33.40;35.80;;;;;;5088683;28;20172;-56
2021/03/17 09:10:46;;;;;;;1999.90;999.90;;;33.20;35.10;;;;;;5088644;28;20521;-53
2021/03/17 09:13:36;;;;;;;1999.90;999.90;;;33.60;35.30;;;;;;5088965;28;20497;-60
2021/03/17 09:16:06;;;;;;;1999.90;999.90;;;34.10;34.70;;;;;;5088222;28;20228;-54
2021/03/17 09:18:33;;;;;;;1999.90;999.90;;;33.70;34.40;;;;;;5088028;28;20313;-51
2021/03/17 09:21:00;;;;;;;1999.90;999.90;;;33.50;34.40;;;;;;5088677;28;20679;-57
2021/03/17 09:23:37;;;;;;;1999.90;999.90;;;33.90;33.80;;;;;;5079071;28;20176;-49
2021/03/17 09:26:06;;;;;;;1999.90;999.90;;;34.10;33.60;;;;;;5074701;28;20156;-58
2021/03/17 09:28:35;;;;;;;1999.90;999.90;;;34.50;33.00;;;;;;5074884;28;20180;-58
2021/03/17 09:31:11;;;;;;;1999.90;999.90;;;33.10;34.60;;;;;;5074509;28;20197;-60
2021/03/17 09:33:42;;;;;;;1999.90;999.90;;;33.70;34.20;;;;;;5074408;28;20645;-44
2021/03/17 09:36:10;;;;;;;1999.90;999.90;;;33.80;34.30;;;;;;5074354;28;20722;-42
2021/03/17 09:38:42;;;;;;;1999.90;999.90;;;34.00;34.20;;;;;;5075026;28;20179;-60
2021/03/17 09:41:17;;;;;;;1999.90;999.90;;;34.60;32.90;;;;;;5074312;28;20167;-51
2021/03/17 09:43:43;;;;;;;1999.90;999.90;;;34.90;32.70;;;;;;5073210;28;20664;-61
2021/03/17 09:46:29;;;;;;;1999.90;999.90;;;35.00;32.40;;;;;;5074265;28;20697;-60
2021/03/17 09:49:08;;;;;;;1999.90;999.90;;;35.60;31.40;;;;;;5074386;28;20168;-61
2021/03/17 09:51:38;;;;;;;1999.90;999.90;;;35.00;32.50;;;;;;5074618;28;20321;-58
2021/03/17 09:54:08;;;;;;;1999.90;999.90;;;35.30;31.60;;;;;;5074357;28;20156;-45
2021/03/17 09:56:43;;;;;;;1999.90;999.90;;;34.80;32.80;;;;;;5072947;28;20256;-53
2021/03/17 09:59:24;;;;;;;1999.90;999.90;;;34.80;32.40;;;;;;5074179;28;20179;-59
2021/03/17 10:02:17;;;;;;;1999.90;999.90;;;34.80;31.00;;;;;;5082056;28;20164;-56
2021/03/17 10:04:47;;;;;;;1999.90;999.90;;;32.90;34.60;;;;;;5074489;28;20169;-60
2021/03/17 10:07:23;;;;;;;1999.90;999.90;;;33.80;33.20;;;;;;5074124;28;20219;-56
2021/03/17 10:09:52;;;;;;;1999.90;999.90;;;34.30;33.30;;;;;;5074348;28;20149;-50
2021/03/17 10:12:42;;;;;;;1999.90;999.90;;;34.60;32.60;;;;;;5073432;28;20301;-53
2021/03/17 10:15:11;;;;;;;1999.90;999.90;;;33.00;33.50;;;;;;5074120;28;20218;-48
2021/03/17 10:17:39;;;;;;;1999.90;999.90;;;32.70;35.60;;;;;;5074219;28;20253;-57
2021/03/17 10:20:09;;;;;;;1999.90;999.90;;;33.10;35.60;;;;;;5074244;28;20633;-44
2021/03/17 10:22:36;;;;;;;1999.90;999.90;;;33.50;34.10;;;;;;5074552;28;20168;-51
2021/03/17 10:25:23;;;;;;;1999.90;999.90;;;32.90;33.60;;;;;;5077373;28;20183;-43
2021/03/17 10:27:52;;;;;;;1999.90;999.90;;;32.20;35.10;;;;;;5094323;28;20153;-52
2021/03/17 10:30:27;;;;;;;1999.90;999.90;;;32.60;34.80;;;;;;5093882;28;20164;-43
2021/03/17 10:32:56;;;;;;;1999.90;999.90;;;33.50;33.50;;;;;;5076453;28;20176;-49
2021/03/17 10:35:23;;;;;;;1999.90;999.90;;;34.10;31.80;;;;;;5073094;28;20195;-45
2021/03/17 10:37:51;;;;;;;1999.90;999.90;;;33.90;32.60;;;;;;5073696;28;20524;-44
2021/03/17 10:40:24;;;;;;;1999.90;999.90;;;34.20;32.50;;;;;;5073927;28;20161;-43
2021/03/17 10:42:56;;;;;;;1999.90;999.90;;;34.40;32.70;;;;;;5073101;28;20200;-47
2021/03/17 10:45:30;;;;;;;1999.90;999.90;;;34.60;32.40;;;;;;5073717;28;20235;-59
2021/03/17 10:47:57;;;;;;;1999.90;999.90;;;34.60;32.80;;;;;;5072078;28;20567;-63
2021/03/17 10:50:35;;;;;;;1999.90;999.90;;;34.90;31.70;;;;;;5073136;28;20204;-62
2021/03/17 10:53:24;;;;;;;1999.90;999.90;;;35.40;30.70;;;;;;5073008;28;20541;-59
2021/03/17 10:55:53;;;;;;;1999.90;999.90;;;35.30;30.10;;;;;;5075153;28;20247;-50
2021/03/17 10:58:23;;;;;;;1999.90;999.90;;;35.00;29.70;;;;;;5073529;28;20173;-53
2021/03/17 11:00:56;;;;;;;1999.90;999.90;;;34.60;30.10;;;;;;5073530;28;20206;-49
2021/03/17 11:03:26;;;;;;;1999.90;999.90;;;34.40;31.20;;;;;;5073299;28;20173;-49
2021/03/17 11:06:12;;;;;;;1999.90;999.90;;;34.20;30.80;;;;;;5073375;28;20173;-59
2021/03/17 11:08:39;;;;;;;1999.90;999.90;;;33.90;32.30;;;;;;5073367;28;20268;-54
2021/03/17 11:11:12;;;;;;;1999.90;999.90;;;34.10;29.50;;;;;;5072976;28;20220;-58
2021/03/17 11:13:43;;;;;;;1999.90;999.90;;;34.40;28.90;;;;;;5073112;28;20183;-64
2021/03/17 11:16:13;;;;;;;1999.90;999.90;;;34.50;28.70;;;;;;5072995;28;20165;-64
2021/03/17 11:18:51;;;;;;;1999.90;999.90;;;34.90;27.50;;;;;;5073051;28;20505;-58
2021/03/17 11:21:33;;;;;;;1999.90;999.90;;;34.90;28.30;;;;;;5072979;28;20161;-59
2021/03/17 11:24:19;;;;;;;1999.90;999.90;;;34.90;28.10;;;;;;5073140;28;20176;-58
2021/03/17 11:26:48;;;;;;;1999.90;999.90;;;34.80;28.50;;;;;;5072993;28;20518;-58
2021/03/17 11:29:23;;;;;;;1999.90;999.90;;;34.70;28.60;;;;;;5073290;28;20172;-51
2021/03/17 11:31:53;;;;;;;1999.90;999.90;;;34.90;28.90;;;;;;5072600;28;20203;-55
2021/03/17 11:34:21;;;;;;;1999.90;999.90;;;34.70;27.90;;;;;;5072579;28;20168;-57
2021/03/17 11:36:49;;;;;;;1999.90;999.90;;;34.50;28.30;;;;;;5072845;28;20198;-68
2021/03/17 11:39:17;;;;;;;1999.90;999.90;;;34.60;28.40;;;;;;5072733;28;20168;-61
2021/03/17 11:41:46;;;;;;;1999.90;999.90;;;34.80;28.30;;;;;;5072200;28;20164;-51
2021/03/17 11:44:15;;;;;;;1999.90;999.90;;;34.40;29.00;;;;;;5072760;28;20161;-46
2021/03/17 11:46:42;;;;;;;1999.90;999.90;;;33.80;27.80;;;;;;5072270;28;20222;-58
2021/03/17 11:49:10;;;;;;;1999.90;999.90;;;32.90;29.60;;;;;;5072730;28;20237;-61
2021/03/17 11:51:36;;;;;;;1999.90;999.90;;;33.40;29.10;;;;;;5072182;28;20211;-59
2021/03/17 11:54:03;;;;;;;1999.90;999.90;;;34.00;29.20;;;;;;5072213;28;20173;-60
2021/03/17 11:56:30;;;;;;;1999.90;999.90;;;34.40;27.50;;;;;;5071730;28;20172;-60
2021/03/17 11:58:57;;;;;;;1999.90;999.90;;;34.70;27.20;;;;;;5073188;28;20192;-46
2021/03/17 12:01:23;;;;;;;1999.90;999.90;;;34.60;26.50;;;;;;5075568;28;20172;-60
2021/03/17 12:03:50;;;;;;;1999.90;999.90;;;34.50;27.00;;;;;;5072476;28;20221;-47
2021/03/17 12:06:17;;;;;;;1999.90;999.90;;;34.40;27.00;;;;;;5072558;28;20160;-43
2021/03/17 12:08:44;;;;;;;1999.90;999.90;;;34.00;26.10;;;;;;5072663;28;20168;-48
2021/03/17 12:11:11;;;;;;;1999.90;999.90;;;33.90;27.90;;;;;;5072218;28;20720;-46
2021/03/17 12:13:38;;;;;;;1999.90;999.90;;;33.80;26.20;;;;;;5072476;28;20173;-51
2021/03/17 12:16:05;;;;;;;1999.90;999.90;;;34.00;26.90;;;;;;5072836;28;20192;-44
2021/03/17 12:18:32;;;;;;;1999.90;999.90;;;33.90;26.80;;;;;;5072049;28;20179;-47
2021/03/17 12:20:58;;;;;;;1999.90;999.90;;;34.10;27.50;;;;;;5072095;28;20183;-46
2021/03/17 12:23:25;;;;;;;1999.90;999.90;;;33.80;26.80;;;;;;5072699;28;20618;-51
2021/03/17 12:25:52;;;;;;;1999.90;999.90;;;33.70;27.30;;;;;;5071578;28;20184;-57
2021/03/17 12:28:19;;;;;;;1999.90;999.90;;;34.00;26.50;;;;;;5071821;28;20205;-62
2021/03/17 12:30:45;;;;;;;1999.90;999.90;;;34.10;26.80;;;;;;5072357;28;20187;-60
2021/03/17 12:33:12;;;;;;;1999.90;999.90;;;34.10;27.10;;;;;;5073805;28;20172;-60
2021/03/17 12:35:39;;;;;;;1999.90;999.90;;;34.30;26.90;;;;;;5071233;28;20261;-53
2021/03/17 12:38:18;;;;;;;1999.90;999.90;;;34.30;25.90;;;;;;5072769;28;20251;-53
2021/03/17 12:40:45;;;;;;;1999.90;999.90;;;34.30;26.90;;;;;;5073067;28;20602;-55
2021/03/17 12:43:12;;;;;;;1999.90;999.90;;;34.50;26.10;;;;;;5072489;28;20169;-58
2021/03/17 12:45:39;;;;;;;1999.90;999.90;;;34.60;25.80;;;;;;5080088;28;20172;-60